sensor_id;sensor_type;location;lat;lon;timestamp;P1;durP1;ratioP1;P2;durP2;ratioP2
9370;SDS011;4725;48.384;8.984;2023-04-10T00:01:05;5.30;;;4.47;;
9370;SDS011;4725;48.384;8.984;2023-04-10T00:03:32;6.93;;;5.43;;
9370;SDS011;4725;48.384;8.984;2023-04-10T00:05:59;5.07;;;4.47;;
9370;SDS011;4725;48.384;8.984;2023-04-10T00:08:26;7.40;;;4.50;;
9370;SDS011;4725;48.384;8.984;2023-04-10T00:10:53;6.83;;;4.93;;
9370;SDS011;4725;48.384;8.984;2023-04-10T00:13:22;5.23;;;4.33;;
9370;SDS011;4725;48.384;8.984;2023-04-10T00:15:49;6.27;;;4.90;;
9370;SDS011;4725;48.384;8.984;2023-04-10T00:18:16;6.63;;;4.27;;
9370;SDS011;4725;48.384;8.984;2023-04-10T00:20:43;6.03;;;5.17;;
9370;SDS011;4725;48.384;8.984;2023-04-10T00:23:10;6.97;;;5.07;;
9370;SDS011;4725;48.384;8.984;2023-04-10T00:25:36;5.93;;;5.20;;
9370;SDS011;4725;48.384;8.984;2023-04-10T00:28:03;6.47;;;5.33;;
9370;SDS011;4725;48.384;8.984;2023-04-10T00:30:32;5.10;;;4.47;;
9370;SDS011;4725;48.384;8.984;2023-04-10T00:32:58;5.57;;;4.57;;
9370;SDS011;4725;48.384;8.984;2023-04-10T00:35:26;4.97;;;4.47;;
9370;SDS011;4725;48.384;8.984;2023-04-10T00:37:52;7.07;;;4.60;;
9370;SDS011;4725;48.384;8.984;2023-04-10T00:40:20;5.30;;;4.77;;
9370;SDS011;4725;48.384;8.984;2023-04-10T00:42:47;5.50;;;4.90;;
9370;SDS011;4725;48.384;8.984;2023-04-10T00:45:14;6.27;;;4.83;;
9370;SDS011;4725;48.384;8.984;2023-04-10T00:47:42;5.40;;;4.37;;
9370;SDS011;4725;48.384;8.984;2023-04-10T00:50:09;5.97;;;4.50;;
9370;SDS011;4725;48.384;8.984;2023-04-10T00:52:36;5.37;;;4.63;;
9370;SDS011;4725;48.384;8.984;2023-04-10T00:55:04;6.33;;;4.53;;
9370;SDS011;4725;48.384;8.984;2023-04-10T00:57:32;5.77;;;4.97;;
9370;SDS011;4725;48.384;8.984;2023-04-10T00:59:59;6.00;;;4.83;;
9370;SDS011;4725;48.384;8.984;2023-04-10T01:02:26;5.73;;;4.63;;
9370;SDS011;4725;48.384;8.984;2023-04-10T01:04:54;5.13;;;4.40;;
9370;SDS011;4725;48.384;8.984;2023-04-10T01:07:25;6.27;;;5.20;;
9370;SDS011;4725;48.384;8.984;2023-04-10T01:10:01;6.00;;;4.57;;
9370;SDS011;4725;48.384;8.984;2023-04-10T01:12:37;6.57;;;5.10;;
9370;SDS011;4725;48.384;8.984;2023-04-10T01:15:17;6.53;;;5.40;;
9370;SDS011;4725;48.384;8.984;2023-04-10T01:17:49;6.03;;;4.80;;
9370;SDS011;4725;48.384;8.984;2023-04-10T01:20:22;5.90;;;4.60;;
9370;SDS011;4725;48.384;8.984;2023-04-10T01:22:55;6.87;;;4.73;;
9370;SDS011;4725;48.384;8.984;2023-04-10T01:25:37;5.33;;;4.47;;
9370;SDS011;4725;48.384;8.984;2023-04-10T01:28:10;4.87;;;4.37;;
9370;SDS011;4725;48.384;8.984;2023-04-10T01:30:51;5.23;;;4.67;;
9370;SDS011;4725;48.384;8.984;2023-04-10T01:33:24;6.30;;;4.90;;
9370;SDS011;4725;48.384;8.984;2023-04-10T01:35:55;5.67;;;4.80;;
9370;SDS011;4725;48.384;8.984;2023-04-10T01:38:25;6.07;;;4.67;;
9370;SDS011;4725;48.384;8.984;2023-04-10T01:40:55;8.07;;;5.70;;
9370;SDS011;4725;48.384;8.984;2023-04-10T01:43:24;5.80;;;4.67;;
9370;SDS011;4725;48.384;8.984;2023-04-10T01:45:53;5.67;;;4.90;;
9370;SDS011;4725;48.384;8.984;2023-04-10T01:48:21;7.47;;;4.93;;
9370;SDS011;4725;48.384;8.984;2023-04-10T01:50:48;5.90;;;4.80;;
9370;SDS011;4725;48.384;8.984;2023-04-10T01:53:17;6.53;;;5.00;;
9370;SDS011;4725;48.384;8.984;2023-04-10T01:55:44;7.03;;;5.40;;
9370;SDS011;4725;48.384;8.984;2023-04-10T01:58:12;6.10;;;4.63;;
9370;SDS011;4725;48.384;8.984;2023-04-10T02:00:39;6.17;;;5.23;;
9370;SDS011;4725;48.384;8.984;2023-04-10T02:03:08;5.50;;;4.73;;
9370;SDS011;4725;48.384;8.984;2023-04-10T02:05:37;5.63;;;4.90;;
9370;SDS011;4725;48.384;8.984;2023-04-10T02:08:12;6.47;;;4.97;;
9370;SDS011;4725;48.384;8.984;2023-04-10T02:10:44;4.33;;;3.93;;
9370;SDS011;4725;48.384;8.984;2023-04-10T02:13:18;5.40;;;4.37;;
9370;SDS011;4725;48.384;8.984;2023-04-10T02:15:46;5.87;;;4.60;;
9370;SDS011;4725;48.384;8.984;2023-04-10T02:18:17;5.23;;;4.20;;
9370;SDS011;4725;48.384;8.984;2023-04-10T02:20:44;5.63;;;4.90;;
9370;SDS011;4725;48.384;8.984;2023-04-10T02:23:11;5.13;;;4.57;;
9370;SDS011;4725;48.384;8.984;2023-04-10T02:25:40;6.27;;;4.97;;
9370;SDS011;4725;48.384;8.984;2023-04-10T02:28:07;6.90;;;5.40;;
9370;SDS011;4725;48.384;8.984;2023-04-10T02:30:34;6.43;;;5.03;;
9370;SDS011;4725;48.384;8.984;2023-04-10T02:33:01;6.57;;;4.37;;
9370;SDS011;4725;48.384;8.984;2023-04-10T02:35:29;7.73;;;5.83;;
9370;SDS011;4725;48.384;8.984;2023-04-10T02:37:56;4.97;;;4.30;;
9370;SDS011;4725;48.384;8.984;2023-04-10T02:40:23;6.80;;;5.43;;
9370;SDS011;4725;48.384;8.984;2023-04-10T02:42:50;7.87;;;5.63;;
9370;SDS011;4725;48.384;8.984;2023-04-10T02:45:17;5.33;;;4.73;;
9370;SDS011;4725;48.384;8.984;2023-04-10T02:47:44;7.17;;;5.30;;
9370;SDS011;4725;48.384;8.984;2023-04-10T02:50:10;6.73;;;5.07;;
9370;SDS011;4725;48.384;8.984;2023-04-10T02:52:39;6.60;;;5.70;;
9370;SDS011;4725;48.384;8.984;2023-04-10T02:55:07;7.57;;;5.90;;
9370;SDS011;4725;48.384;8.984;2023-04-10T02:57:34;5.77;;;4.87;;
9370;SDS011;4725;48.384;8.984;2023-04-10T03:00:01;5.50;;;4.40;;
9370;SDS011;4725;48.384;8.984;2023-04-10T03:02:28;6.43;;;5.20;;
9370;SDS011;4725;48.384;8.984;2023-04-10T03:04:56;5.50;;;5.00;;
9370;SDS011;4725;48.384;8.984;2023-04-10T03:07:22;5.20;;;4.27;;
9370;SDS011;4725;48.384;8.984;2023-04-10T03:09:51;6.60;;;4.90;;
9370;SDS011;4725;48.384;8.984;2023-04-10T03:12:17;5.63;;;4.57;;
9370;SDS011;4725;48.384;8.984;2023-04-10T03:14:44;6.00;;;4.83;;
9370;SDS011;4725;48.384;8.984;2023-04-10T03:17:11;4.97;;;4.47;;
9370;SDS011;4725;48.384;8.984;2023-04-10T03:19:38;5.40;;;4.47;;
9370;SDS011;4725;48.384;8.984;2023-04-10T03:22:05;5.43;;;4.57;;
9370;SDS011;4725;48.384;8.984;2023-04-10T03:24:34;5.17;;;4.57;;
9370;SDS011;4725;48.384;8.984;2023-04-10T03:27:03;4.60;;;3.97;;
9370;SDS011;4725;48.384;8.984;2023-04-10T03:29:30;6.73;;;4.37;;
9370;SDS011;4725;48.384;8.984;2023-04-10T03:31:57;5.73;;;4.53;;
9370;SDS011;4725;48.384;8.984;2023-04-10T03:34:23;6.30;;;4.27;;
9370;SDS011;4725;48.384;8.984;2023-04-10T03:36:50;6.30;;;4.70;;
9370;SDS011;4725;48.384;8.984;2023-04-10T03:39:17;6.00;;;4.40;;
9370;SDS011;4725;48.384;8.984;2023-04-10T03:41:44;6.50;;;4.30;;
9370;SDS011;4725;48.384;8.984;2023-04-10T03:44:13;6.50;;;4.47;;
9370;SDS011;4725;48.384;8.984;2023-04-10T03:46:39;4.63;;;3.67;;
9370;SDS011;4725;48.384;8.984;2023-04-10T03:49:06;6.20;;;4.33;;
9370;SDS011;4725;48.384;8.984;2023-04-10T03:51:33;5.83;;;4.00;;
9370;SDS011;4725;48.384;8.984;2023-04-10T03:54:00;6.30;;;4.57;;
9370;SDS011;4725;48.384;8.984;2023-04-10T03:56:27;6.60;;;4.77;;
9370;SDS011;4725;48.384;8.984;2023-04-10T03:58:54;5.67;;;4.67;;
9370;SDS011;4725;48.384;8.984;2023-04-10T04:01:22;5.60;;;4.23;;
9370;SDS011;4725;48.384;8.984;2023-04-10T04:03:49;5.50;;;4.50;;
9370;SDS011;4725;48.384;8.984;2023-04-10T04:06:16;5.63;;;4.50;;
9370;SDS011;4725;48.384;8.984;2023-04-10T04:08:43;5.07;;;3.87;;
9370;SDS011;4725;48.384;8.984;2023-04-10T04:11:10;6.47;;;4.90;;
9370;SDS011;4725;48.384;8.984;2023-04-10T04:13:37;6.93;;;5.40;;
9370;SDS011;4725;48.384;8.984;2023-04-10T04:16:04;5.90;;;4.60;;
9370;SDS011;4725;48.384;8.984;2023-04-10T04:18:33;8.80;;;4.80;;
9370;SDS011;4725;48.384;8.984;2023-04-10T04:21:00;6.53;;;4.80;;
9370;SDS011;4725;48.384;8.984;2023-04-10T04:23:27;8.17;;;5.97;;
9370;SDS011;4725;48.384;8.984;2023-04-10T04:25:54;6.93;;;4.70;;
9370;SDS011;4725;48.384;8.984;2023-04-10T04:28:21;6.37;;;5.07;;
9370;SDS011;4725;48.384;8.984;2023-04-10T04:30:48;6.33;;;4.47;;
9370;SDS011;4725;48.384;8.984;2023-04-10T04:33:15;6.33;;;5.03;;
9370;SDS011;4725;48.384;8.984;2023-04-10T04:35:43;6.23;;;4.70;;
9370;SDS011;4725;48.384;8.984;2023-04-10T04:38:10;7.77;;;4.90;;
9370;SDS011;4725;48.384;8.984;2023-04-10T04:40:37;5.37;;;4.57;;
9370;SDS011;4725;48.384;8.984;2023-04-10T04:43:04;6.53;;;5.70;;
9370;SDS011;4725;48.384;8.984;2023-04-10T04:45:31;8.60;;;5.57;;
9370;SDS011;4725;48.384;8.984;2023-04-10T04:47:58;6.73;;;5.30;;
9370;SDS011;4725;48.384;8.984;2023-04-10T04:50:24;6.57;;;5.30;;
9370;SDS011;4725;48.384;8.984;2023-04-10T04:52:53;8.50;;;5.93;;
9370;SDS011;4725;48.384;8.984;2023-04-10T04:55:20;9.37;;;7.33;;
9370;SDS011;4725;48.384;8.984;2023-04-10T04:57:46;8.13;;;5.80;;
9370;SDS011;4725;48.384;8.984;2023-04-10T05:00:13;8.83;;;6.37;;
9370;SDS011;4725;48.384;8.984;2023-04-10T05:02:40;8.27;;;5.77;;
9370;SDS011;4725;48.384;8.984;2023-04-10T05:05:07;9.23;;;6.27;;
9370;SDS011;4725;48.384;8.984;2023-04-10T05:07:34;11.87;;;7.70;;
9370;SDS011;4725;48.384;8.984;2023-04-10T05:10:03;6.90;;;5.70;;
9370;SDS011;4725;48.384;8.984;2023-04-10T05:12:31;7.33;;;5.83;;
9370;SDS011;4725;48.384;8.984;2023-04-10T05:14:58;8.07;;;5.83;;
9370;SDS011;4725;48.384;8.984;2023-04-10T05:17:25;7.27;;;5.30;;
9370;SDS011;4725;48.384;8.984;2023-04-10T05:19:52;7.60;;;5.43;;
9370;SDS011;4725;48.384;8.984;2023-04-10T05:22:18;6.70;;;5.10;;
9370;SDS011;4725;48.384;8.984;2023-04-10T05:24:45;8.80;;;6.10;;
9370;SDS011;4725;48.384;8.984;2023-04-10T05:27:13;9.10;;;5.83;;
9370;SDS011;4725;48.384;8.984;2023-04-10T05:29:40;8.67;;;6.07;;
9370;SDS011;4725;48.384;8.984;2023-04-10T05:32:07;8.00;;;5.77;;
9370;SDS011;4725;48.384;8.984;2023-04-10T05:34:34;9.23;;;6.70;;
9370;SDS011;4725;48.384;8.984;2023-04-10T05:37:01;10.27;;;6.83;;
9370;SDS011;4725;48.384;8.984;2023-04-10T05:39:28;9.17;;;6.50;;
9370;SDS011;4725;48.384;8.984;2023-04-10T05:41:54;9.20;;;5.63;;
9370;SDS011;4725;48.384;8.984;2023-04-10T05:44:23;8.33;;;5.00;;
9370;SDS011;4725;48.384;8.984;2023-04-10T05:46:50;6.87;;;4.83;;
9370;SDS011;4725;48.384;8.984;2023-04-10T05:49:17;6.13;;;5.03;;
9370;SDS011;4725;48.384;8.984;2023-04-10T05:51:44;6.60;;;5.23;;
9370;SDS011;4725;48.384;8.984;2023-04-10T05:54:14;5.60;;;4.90;;
9370;SDS011;4725;48.384;8.984;2023-04-10T05:56:41;5.73;;;5.00;;
9370;SDS011;4725;48.384;8.984;2023-04-10T05:59:07;6.47;;;4.77;;
9370;SDS011;4725;48.384;8.984;2023-04-10T06:01:36;5.97;;;4.70;;
9370;SDS011;4725;48.384;8.984;2023-04-10T06:04:02;6.13;;;4.93;;
9370;SDS011;4725;48.384;8.984;2023-04-10T06:06:30;5.67;;;4.07;;
9370;SDS011;4725;48.384;8.984;2023-04-10T06:08:57;5.13;;;4.40;;
9370;SDS011;4725;48.384;8.984;2023-04-10T06:11:24;5.97;;;4.50;;
9370;SDS011;4725;48.384;8.984;2023-04-10T06:13:51;6.80;;;5.40;;
9370;SDS011;4725;48.384;8.984;2023-04-10T06:16:18;7.17;;;5.00;;
9370;SDS011;4725;48.384;8.984;2023-04-10T06:18:46;7.10;;;5.30;;
9370;SDS011;4725;48.384;8.984;2023-04-10T06:21:16;5.60;;;4.93;;
9370;SDS011;4725;48.384;8.984;2023-04-10T06:23:43;7.33;;;5.27;;
9370;SDS011;4725;48.384;8.984;2023-04-10T06:26:10;7.20;;;4.60;;
9370;SDS011;4725;48.384;8.984;2023-04-10T06:28:37;7.23;;;5.30;;
9370;SDS011;4725;48.384;8.984;2023-04-10T06:31:04;6.93;;;5.17;;
9370;SDS011;4725;48.384;8.984;2023-04-10T06:33:32;6.97;;;4.90;;
9370;SDS011;4725;48.384;8.984;2023-04-10T06:36:02;7.97;;;6.87;;
9370;SDS011;4725;48.384;8.984;2023-04-10T06:38:29;8.20;;;5.30;;
9370;SDS011;4725;48.384;8.984;2023-04-10T06:40:58;7.33;;;6.07;;
9370;SDS011;4725;48.384;8.984;2023-04-10T06:43:25;7.13;;;5.13;;
9370;SDS011;4725;48.384;8.984;2023-04-10T06:45:53;7.03;;;5.37;;
9370;SDS011;4725;48.384;8.984;2023-04-10T06:48:20;7.90;;;5.67;;
9370;SDS011;4725;48.384;8.984;2023-04-10T06:50:46;7.57;;;5.70;;
9370;SDS011;4725;48.384;8.984;2023-04-10T06:53:15;5.73;;;5.13;;
9370;SDS011;4725;48.384;8.984;2023-04-10T06:55:41;7.73;;;5.70;;
9370;SDS011;4725;48.384;8.984;2023-04-10T06:58:08;6.97;;;5.67;;
9370;SDS011;4725;48.384;8.984;2023-04-10T07:00:35;8.10;;;5.90;;
9370;SDS011;4725;48.384;8.984;2023-04-10T07:03:02;6.97;;;5.50;;
9370;SDS011;4725;48.384;8.984;2023-04-10T07:05:29;6.70;;;5.37;;
9370;SDS011;4725;48.384;8.984;2023-04-10T07:07:56;8.17;;;6.27;;
9370;SDS011;4725;48.384;8.984;2023-04-10T07:10:24;7.07;;;5.97;;
9370;SDS011;4725;48.384;8.984;2023-04-10T07:12:51;7.00;;;5.60;;
9370;SDS011;4725;48.384;8.984;2023-04-10T07:15:18;6.93;;;5.13;;
9370;SDS011;4725;48.384;8.984;2023-04-10T07:17:47;6.57;;;5.10;;
9370;SDS011;4725;48.384;8.984;2023-04-10T07:20:14;6.03;;;5.13;;
9370;SDS011;4725;48.384;8.984;2023-04-10T07:22:41;5.57;;;4.97;;
9370;SDS011;4725;48.384;8.984;2023-04-10T07:25:08;6.00;;;4.97;;
9370;SDS011;4725;48.384;8.984;2023-04-10T07:27:36;5.40;;;4.30;;
9370;SDS011;4725;48.384;8.984;2023-04-10T07:30:03;5.00;;;4.43;;
9370;SDS011;4725;48.384;8.984;2023-04-10T07:32:31;5.17;;;4.63;;
9370;SDS011;4725;48.384;8.984;2023-04-10T07:34:59;4.30;;;3.90;;
9370;SDS011;4725;48.384;8.984;2023-04-10T07:37:26;4.70;;;4.03;;
9370;SDS011;4725;48.384;8.984;2023-04-10T07:39:53;5.27;;;4.30;;
9370;SDS011;4725;48.384;8.984;2023-04-10T07:42:20;4.27;;;3.57;;
9370;SDS011;4725;48.384;8.984;2023-04-10T07:44:48;4.80;;;3.83;;
9370;SDS011;4725;48.384;8.984;2023-04-10T07:47:15;3.60;;;3.30;;
9370;SDS011;4725;48.384;8.984;2023-04-10T07:49:42;3.70;;;3.37;;
9370;SDS011;4725;48.384;8.984;2023-04-10T07:52:09;4.97;;;3.93;;
9370;SDS011;4725;48.384;8.984;2023-04-10T07:54:36;4.30;;;3.90;;
9370;SDS011;4725;48.384;8.984;2023-04-10T07:57:03;4.13;;;3.33;;
9370;SDS011;4725;48.384;8.984;2023-04-10T07:59:29;3.77;;;3.37;;
9370;SDS011;4725;48.384;8.984;2023-04-10T08:01:58;4.27;;;3.87;;
9370;SDS011;4725;48.384;8.984;2023-04-10T08:04:25;4.80;;;4.17;;
9370;SDS011;4725;48.384;8.984;2023-04-10T08:06:52;4.67;;;3.80;;
9370;SDS011;4725;48.384;8.984;2023-04-10T08:09:18;4.67;;;3.67;;
9370;SDS011;4725;48.384;8.984;2023-04-10T08:11:45;4.23;;;3.83;;
9370;SDS011;4725;48.384;8.984;2023-04-10T08:14:12;3.63;;;3.33;;
9370;SDS011;4725;48.384;8.984;2023-04-10T08:16:39;3.23;;;2.93;;
9370;SDS011;4725;48.384;8.984;2023-04-10T08:19:08;2.40;;;2.20;;
9370;SDS011;4725;48.384;8.984;2023-04-10T08:21:34;2.60;;;2.40;;
9370;SDS011;4725;48.384;8.984;2023-04-10T08:24:01;1.40;;;1.30;;
9370;SDS011;4725;48.384;8.984;2023-04-10T08:26:29;1.70;;;1.50;;
9370;SDS011;4725;48.384;8.984;2023-04-10T08:28:56;2.37;;;2.00;;
9370;SDS011;4725;48.384;8.984;2023-04-10T08:31:25;1.63;;;1.50;;
9370;SDS011;4725;48.384;8.984;2023-04-10T08:33:53;1.53;;;1.43;;
9370;SDS011;4725;48.384;8.984;2023-04-10T08:36:21;1.97;;;1.50;;
9370;SDS011;4725;48.384;8.984;2023-04-10T08:38:48;1.27;;;1.17;;
9370;SDS011;4725;48.384;8.984;2023-04-10T08:41:15;1.67;;;1.33;;
9370;SDS011;4725;48.384;8.984;2023-04-10T08:43:43;1.50;;;1.30;;
9370;SDS011;4725;48.384;8.984;2023-04-10T08:46:10;1.63;;;1.53;;
9370;SDS011;4725;48.384;8.984;2023-04-10T08:48:38;1.47;;;1.37;;
9370;SDS011;4725;48.384;8.984;2023-04-10T08:51:12;1.60;;;1.50;;
9370;SDS011;4725;48.384;8.984;2023-04-10T08:53:43;2.43;;;1.80;;
9370;SDS011;4725;48.384;8.984;2023-04-10T08:56:12;3.73;;;1.50;;
9370;SDS011;4725;48.384;8.984;2023-04-10T08:58:42;1.70;;;1.60;;
9370;SDS011;4725;48.384;8.984;2023-04-10T09:01:10;1.50;;;1.40;;
9370;SDS011;4725;48.384;8.984;2023-04-10T09:03:36;1.80;;;1.70;;
9370;SDS011;4725;48.384;8.984;2023-04-10T09:06:04;2.20;;;1.70;;
9370;SDS011;4725;48.384;8.984;2023-04-10T09:08:31;1.53;;;1.43;;
9370;SDS011;4725;48.384;8.984;2023-04-10T09:11:00;1.80;;;1.60;;
9370;SDS011;4725;48.384;8.984;2023-04-10T09:13:37;1.70;;;1.50;;
9370;SDS011;4725;48.384;8.984;2023-04-10T09:16:05;1.40;;;1.30;;
9370;SDS011;4725;48.384;8.984;2023-04-10T09:18:39;1.88;;;1.30;;
9370;SDS011;4725;48.384;8.984;2023-04-10T09:21:07;1.33;;;1.23;;
9370;SDS011;4725;48.384;8.984;2023-04-10T09:23:35;1.50;;;1.40;;
9370;SDS011;4725;48.384;8.984;2023-04-10T09:26:06;1.50;;;1.40;;
9370;SDS011;4725;48.384;8.984;2023-04-10T09:28:55;2.10;;;1.90;;
9370;SDS011;4725;48.384;8.984;2023-04-10T09:31:29;1.50;;;1.40;;
9370;SDS011;4725;48.384;8.984;2023-04-10T09:34:07;1.50;;;1.40;;
9370;SDS011;4725;48.384;8.984;2023-04-10T09:36:38;1.30;;;1.20;;
9370;SDS011;4725;48.384;8.984;2023-04-10T09:39:06;1.50;;;1.35;;
9370;SDS011;4725;48.384;8.984;2023-04-10T09:41:35;1.35;;;1.25;;
9370;SDS011;4725;48.384;8.984;2023-04-10T09:44:12;1.73;;;1.63;;
9370;SDS011;4725;48.384;8.984;2023-04-10T09:46:39;1.55;;;1.40;;
9370;SDS011;4725;48.384;8.984;2023-04-10T09:49:06;1.58;;;1.48;;
9370;SDS011;4725;48.384;8.984;2023-04-10T09:51:33;1.30;;;1.20;;
9370;SDS011;4725;48.384;8.984;2023-04-10T09:54:01;1.33;;;1.23;;
9370;SDS011;4725;48.384;8.984;2023-04-10T09:56:28;1.20;;;1.10;;
9370;SDS011;4725;48.384;8.984;2023-04-10T09:58:59;1.17;;;1.10;;
9370;SDS011;4725;48.384;8.984;2023-04-10T10:01:28;2.70;;;1.38;;
9370;SDS011;4725;48.384;8.984;2023-04-10T10:03:59;1.20;;;1.10;;
9370;SDS011;4725;48.384;8.984;2023-04-10T10:06:27;1.50;;;1.38;;
9370;SDS011;4725;48.384;8.984;2023-04-10T10:08:56;1.30;;;1.20;;
9370;SDS011;4725;48.384;8.984;2023-04-10T10:11:26;1.67;;;1.20;;
9370;SDS011;4725;48.384;8.984;2023-04-10T10:13:54;1.40;;;1.30;;
9370;SDS011;4725;48.384;8.984;2023-04-10T10:16:25;1.33;;;1.23;;
9370;SDS011;4725;48.384;8.984;2023-04-10T10:19:00;1.08;;;1.05;;
9370;SDS011;4725;48.384;8.984;2023-04-10T10:21:34;1.30;;;1.20;;
9370;SDS011;4725;48.384;8.984;2023-04-10T10:24:02;3.03;;;1.17;;
9370;SDS011;4725;48.384;8.984;2023-04-10T10:26:32;2.63;;;1.20;;
9370;SDS011;4725;48.384;8.984;2023-04-10T10:29:00;1.33;;;1.23;;
9370;SDS011;4725;48.384;8.984;2023-04-10T10:31:31;1.30;;;1.20;;
9370;SDS011;4725;48.384;8.984;2023-04-10T10:34:01;1.35;;;1.25;;
9370;SDS011;4725;48.384;8.984;2023-04-10T10:36:31;1.10;;;1.00;;
9370;SDS011;4725;48.384;8.984;2023-04-10T10:39:00;1.10;;;1.10;;
9370;SDS011;4725;48.384;8.984;2023-04-10T10:41:43;1.45;;;1.25;;
9370;SDS011;4725;48.384;8.984;2023-04-10T10:44:18;1.10;;;1.00;;
9370;SDS011;4725;48.384;8.984;2023-04-10T10:46:57;0.90;;;0.90;;
9370;SDS011;4725;48.384;8.984;2023-04-10T10:49:51;1.00;;;1.00;;
9370;SDS011;4725;48.384;8.984;2023-04-10T10:52:35;0.90;;;0.90;;
9370;SDS011;4725;48.384;8.984;2023-04-10T10:57:56;0.90;;;0.90;;
9370;SDS011;4725;48.384;8.984;2023-04-10T11:00:24;1.00;;;1.00;;
9370;SDS011;4725;48.384;8.984;2023-04-10T11:05:53;1.05;;;1.05;;
9370;SDS011;4725;48.384;8.984;2023-04-10T11:08:33;2.08;;;1.73;;
9370;SDS011;4725;48.384;8.984;2023-04-10T11:11:01;2.30;;;2.10;;
9370;SDS011;4725;48.384;8.984;2023-04-10T11:13:29;0.90;;;0.90;;
9370;SDS011;4725;48.384;8.984;2023-04-10T11:15:57;1.30;;;1.20;;
9370;SDS011;4725;48.384;8.984;2023-04-10T11:21:28;1.88;;;1.70;;
9370;SDS011;4725;48.384;8.984;2023-04-10T11:24:02;1.50;;;1.40;;
9370;SDS011;4725;48.384;8.984;2023-04-10T11:26:36;3.40;;;1.52;;
9370;SDS011;4725;48.384;8.984;2023-04-10T11:32:01;1.30;;;1.20;;
9370;SDS011;4725;48.384;8.984;2023-04-10T11:34:29;1.60;;;1.50;;
9370;SDS011;4725;48.384;8.984;2023-04-10T11:36:58;2.53;;;2.00;;
9370;SDS011;4725;48.384;8.984;2023-04-10T11:39:27;1.65;;;1.50;;
9370;SDS011;4725;48.384;8.984;2023-04-10T11:41:55;1.17;;;1.10;;
9370;SDS011;4725;48.384;8.984;2023-04-10T11:44:26;0.95;;;0.95;;
9370;SDS011;4725;48.384;8.984;2023-04-10T11:46:54;1.30;;;1.20;;
9370;SDS011;4725;48.384;8.984;2023-04-10T11:49:23;1.30;;;1.20;;
9370;SDS011;4725;48.384;8.984;2023-04-10T11:51:52;1.13;;;1.02;;
9370;SDS011;4725;48.384;8.984;2023-04-10T11:54:21;1.17;;;1.10;;
9370;SDS011;4725;48.384;8.984;2023-04-10T11:56:56;0.90;;;0.90;;
9370;SDS011;4725;48.384;8.984;2023-04-10T11:59:25;1.00;;;1.00;;
9370;SDS011;4725;48.384;8.984;2023-04-10T12:01:52;0.98;;;0.98;;
9370;SDS011;4725;48.384;8.984;2023-04-10T12:04:27;1.15;;;1.10;;
9370;SDS011;4725;48.384;8.984;2023-04-10T12:06:55;2.42;;;1.38;;
9370;SDS011;4725;48.384;8.984;2023-04-10T12:09:24;1.77;;;1.00;;
9370;SDS011;4725;48.384;8.984;2023-04-10T12:11:52;1.23;;;1.15;;
9370;SDS011;4725;48.384;8.984;2023-04-10T12:14:21;1.20;;;1.20;;
9370;SDS011;4725;48.384;8.984;2023-04-10T12:16:49;1.30;;;1.20;;
9370;SDS011;4725;48.384;8.984;2023-04-10T12:19:17;1.13;;;1.02;;
9370;SDS011;4725;48.384;8.984;2023-04-10T12:21:44;0.98;;;0.98;;
9370;SDS011;4725;48.384;8.984;2023-04-10T12:24:12;1.00;;;1.00;;
9370;SDS011;4725;48.384;8.984;2023-04-10T12:27:00;1.00;;;1.00;;
9370;SDS011;4725;48.384;8.984;2023-04-10T12:29:28;1.10;;;0.88;;
9370;SDS011;4725;48.384;8.984;2023-04-10T12:31:55;1.30;;;1.20;;
9370;SDS011;4725;48.384;8.984;2023-04-10T12:34:22;2.88;;;1.17;;
9370;SDS011;4725;48.384;8.984;2023-04-10T12:36:50;1.40;;;1.30;;
9370;SDS011;4725;48.384;8.984;2023-04-10T12:39:20;1.10;;;1.00;;
9370;SDS011;4725;48.384;8.984;2023-04-10T12:41:48;0.90;;;0.90;;
9370;SDS011;4725;48.384;8.984;2023-04-10T12:44:16;1.00;;;1.00;;
9370;SDS011;4725;48.384;8.984;2023-04-10T12:46:44;0.90;;;0.90;;
9370;SDS011;4725;48.384;8.984;2023-04-10T12:49:11;1.30;;;1.20;;
9370;SDS011;4725;48.384;8.984;2023-04-10T12:51:42;1.05;;;1.05;;
9370;SDS011;4725;48.384;8.984;2023-04-10T12:54:10;1.10;;;1.10;;
9370;SDS011;4725;48.384;8.984;2023-04-10T12:56:50;1.23;;;1.13;;
9370;SDS011;4725;48.384;8.984;2023-04-10T12:59:19;1.60;;;1.50;;
9370;SDS011;4725;48.384;8.984;2023-04-10T13:01:46;1.17;;;1.10;;
9370;SDS011;4725;48.384;8.984;2023-04-10T13:04:12;1.00;;;1.00;;
9370;SDS011;4725;48.384;8.984;2023-04-10T13:06:42;1.42;;;1.33;;
9370;SDS011;4725;48.384;8.984;2023-04-10T13:09:10;1.50;;;1.40;;
9370;SDS011;4725;48.384;8.984;2023-04-10T13:11:37;1.25;;;1.20;;
9370;SDS011;4725;48.384;8.984;2023-04-10T13:14:04;1.23;;;1.13;;
9370;SDS011;4725;48.384;8.984;2023-04-10T13:16:32;2.03;;;1.75;;
9370;SDS011;4725;48.384;8.984;2023-04-10T13:18:59;1.50;;;1.23;;
9370;SDS011;4725;48.384;8.984;2023-04-10T13:21:26;1.40;;;1.30;;
9370;SDS011;4725;48.384;8.984;2023-04-10T13:23:53;1.90;;;1.55;;
9370;SDS011;4725;48.384;8.984;2023-04-10T13:26:20;1.38;;;1.27;;
9370;SDS011;4725;48.384;8.984;2023-04-10T13:28:47;1.13;;;1.02;;
9370;SDS011;4725;48.384;8.984;2023-04-10T13:31:14;1.50;;;1.40;;
9370;SDS011;4725;48.384;8.984;2023-04-10T13:33:43;1.27;;;1.20;;
9370;SDS011;4725;48.384;8.984;2023-04-10T13:36:12;1.52;;;1.42;;
9370;SDS011;4725;48.384;8.984;2023-04-10T13:38:39;1.40;;;1.30;;
9370;SDS011;4725;48.384;8.984;2023-04-10T13:41:06;1.40;;;1.30;;
9370;SDS011;4725;48.384;8.984;2023-04-10T13:43:33;1.85;;;1.70;;
9370;SDS011;4725;48.384;8.984;2023-04-10T13:46:00;1.38;;;1.27;;
9370;SDS011;4725;48.384;8.984;2023-04-10T13:48:26;1.40;;;1.30;;
9370;SDS011;4725;48.384;8.984;2023-04-10T13:50:55;1.17;;;1.10;;
9370;SDS011;4725;48.384;8.984;2023-04-10T13:53:21;2.20;;;1.30;;
9370;SDS011;4725;48.384;8.984;2023-04-10T13:55:48;1.35;;;1.25;;
9370;SDS011;4725;48.384;8.984;2023-04-10T13:58:15;1.17;;;1.08;;
9370;SDS011;4725;48.384;8.984;2023-04-10T14:00:42;1.20;;;1.10;;
9370;SDS011;4725;48.384;8.984;2023-04-10T14:03:09;1.25;;;1.20;;
9370;SDS011;4725;48.384;8.984;2023-04-10T14:05:36;1.05;;;1.05;;
9370;SDS011;4725;48.384;8.984;2023-04-10T14:08:04;1.30;;;1.20;;
9370;SDS011;4725;48.384;8.984;2023-04-10T14:10:35;1.50;;;1.17;;
9370;SDS011;4725;48.384;8.984;2023-04-10T14:13:03;1.17;;;1.08;;
9370;SDS011;4725;48.384;8.984;2023-04-10T14:15:30;0.90;;;0.90;;
9370;SDS011;4725;48.384;8.984;2023-04-10T14:17:57;1.35;;;1.25;;
9370;SDS011;4725;48.384;8.984;2023-04-10T14:20:24;1.67;;;1.10;;
9370;SDS011;4725;48.384;8.984;2023-04-10T14:22:50;1.85;;;1.10;;
9370;SDS011;4725;48.384;8.984;2023-04-10T14:25:19;0.98;;;0.98;;
9370;SDS011;4725;48.384;8.984;2023-04-10T14:27:45;1.00;;;1.00;;
9370;SDS011;4725;48.384;8.984;2023-04-10T14:30:12;1.30;;;1.17;;
9370;SDS011;4725;48.384;8.984;2023-04-10T14:32:39;1.10;;;1.10;;
9370;SDS011;4725;48.384;8.984;2023-04-10T14:35:06;1.55;;;1.00;;
9370;SDS011;4725;48.384;8.984;2023-04-10T14:37:34;0.82;;;0.82;;
9370;SDS011;4725;48.384;8.984;2023-04-10T14:40:01;1.13;;;1.00;;
9370;SDS011;4725;48.384;8.984;2023-04-10T14:42:31;1.02;;;1.02;;
9370;SDS011;4725;48.384;8.984;2023-04-10T14:44:57;1.40;;;1.30;;
9370;SDS011;4725;48.384;8.984;2023-04-10T14:47:24;2.67;;;1.00;;
9370;SDS011;4725;48.384;8.984;2023-04-10T14:49:51;0.80;;;0.80;;
9370;SDS011;4725;48.384;8.984;2023-04-10T14:52:18;1.20;;;1.10;;
9370;SDS011;4725;48.384;8.984;2023-04-10T14:54:45;0.90;;;0.90;;
9370;SDS011;4725;48.384;8.984;2023-04-10T14:57:12;1.33;;;1.02;;
9370;SDS011;4725;48.384;8.984;2023-04-10T14:59:41;1.10;;;1.00;;
9370;SDS011;4725;48.384;8.984;2023-04-10T15:02:08;1.13;;;1.10;;
9370;SDS011;4725;48.384;8.984;2023-04-10T15:04:34;1.30;;;1.20;;
9370;SDS011;4725;48.384;8.984;2023-04-10T15:07:01;1.15;;;1.05;;
9370;SDS011;4725;48.384;8.984;2023-04-10T15:09:28;0.80;;;0.80;;
9370;SDS011;4725;48.384;8.984;2023-04-10T15:11:55;0.90;;;0.90;;
9370;SDS011;4725;48.384;8.984;2023-04-10T15:14:22;0.90;;;0.90;;
9370;SDS011;4725;48.384;8.984;2023-04-10T15:16:50;0.90;;;0.90;;
9370;SDS011;4725;48.384;8.984;2023-04-10T15:19:17;1.00;;;0.90;;
9370;SDS011;4725;48.384;8.984;2023-04-10T15:21:44;1.58;;;1.00;;
9370;SDS011;4725;48.384;8.984;2023-04-10T15:24:11;1.35;;;1.00;;
9370;SDS011;4725;48.384;8.984;2023-04-10T15:26:41;1.10;;;1.00;;
9370;SDS011;4725;48.384;8.984;2023-04-10T15:29:09;0.90;;;0.90;;
9370;SDS011;4725;48.384;8.984;2023-04-10T15:31:35;1.02;;;1.02;;
9370;SDS011;4725;48.384;8.984;2023-04-10T15:34:04;1.13;;;1.02;;